Time;durP1;ratioP1;P1;durP2;ratioP2;P2;SDS_P1;SDS_P2;PMS_P1;PMS_P2;Temp;Humidity;BMP_temperature;BMP_pressure;BME280_temperature;BME280_humidity;BME280_pressure;Samples;Min_cycle;Max_cycle;Signal;HPM_P1;HPM_P2
2022/05/05 00:01:43;;;;;;;29.50;15.20;;;;;;;10.00;78.63;101915.22;5043988;28;20032;-66
2022/05/05 00:04:10;;;;;;;26.25;14.07;;;;;;;9.97;76.90;101909.28;5041838;28;20025;-66
2022/05/05 00:06:36;;;;;;;25.63;13.88;;;;;;;9.95;76.47;101914.97;5044118;28;20032;-66
2022/05/05 00:09:02;;;;;;;30.75;15.40;;;;;;;9.93;76.64;101910.72;5026778;28;20671;-66
2022/05/05 00:14:24;;;;;;;26.08;13.95;;;;;;;9.90;76.28;101911.13;5044778;28;20087;-66
2022/05/05 00:16:50;;;;;;;25.73;14.45;;;;;;;9.88;76.35;101914.94;5044065;28;20079;-66
2022/05/05 00:19:15;;;;;;;29.85;15.10;;;;;;;9.87;77.32;101915.94;5041773;28;20040;-66
2022/05/05 00:21:41;;;;;;;29.23;13.80;;;;;;;9.91;78.27;101908.19;5042487;28;20076;-66
2022/05/05 00:24:07;;;;;;;31.73;15.63;;;;;;;9.90;77.81;101913.88;5044504;28;20045;-66
2022/05/05 00:26:32;;;;;;;28.35;14.07;;;;;;;9.92;78.06;101909.03;5043790;28;20075;-66
2022/05/05 00:28:58;;;;;;;28.65;13.82;;;;;;;9.96;78.53;101913.91;5041861;28;20399;-66
2022/05/05 00:31:23;;;;;;;27.73;15.07;;;;;;;9.93;77.65;101922.53;5043170;28;20043;-66
2022/05/05 00:33:48;;;;;;;29.58;14.52;;;;;;;9.95;77.47;101914.13;5043917;28;20134;-66
2022/05/05 00:36:14;;;;;;;30.30;15.02;;;;;;;9.96;78.83;101905.69;5025056;28;20079;-66
2022/05/05 00:38:39;;;;;;;33.88;15.63;;;;;;;9.93;76.91;101916.19;5042667;28;20033;-66
2022/05/05 00:41:04;;;;;;;28.25;15.35;;;;;;;9.94;76.41;101906.94;5044585;28;20029;-66
2022/05/05 00:43:30;;;;;;;31.73;15.18;;;;;;;9.86;76.41;101900.53;5041754;28;20037;-66
2022/05/05 00:45:55;;;;;;;28.27;14.93;;;;;;;9.83;76.75;101906.44;5041142;28;20032;-66
2022/05/05 00:48:24;;;;;;;33.22;16.13;;;;;;;9.74;76.45;101904.91;5026064;28;20077;-66
2022/05/05 00:50:49;;;;;;;29.70;15.77;;;;;;;9.68;76.22;101897.47;5025828;28;20055;-66
2022/05/05 00:53:15;;;;;;;29.48;15.38;;;;;;;9.61;76.32;101900.13;5038827;28;20444;-66
2022/05/05 00:55:40;;;;;;;29.42;14.98;;;;;;;9.55;75.98;101903.69;5043939;28;20063;-67
2022/05/05 00:58:06;;;;;;;30.08;14.82;;;;;;;9.51;75.93;101904.28;5044182;28;20073;-66
2022/05/05 01:00:33;;;;;;;32.03;14.57;;;;;;;9.42;76.85;101902.72;5041778;28;20048;-66
2022/05/05 01:03:00;;;;;;;29.67;15.98;;;;;;;9.35;77.00;101906.25;5025014;28;20029;-66
2022/05/05 01:05:27;;;;;;;32.10;16.33;;;;;;;9.30;77.96;101900.50;5036155;28;20021;-66
2022/05/05 01:07:56;;;;;;;33.88;16.05;;;;;;;9.28;78.39;101904.50;5038357;28;20295;-66
2022/05/05 01:10:22;;;;;;;34.63;16.30;;;;;;;9.25;78.60;101897.50;5042396;28;20024;-66
2022/05/05 01:12:47;;;;;;;32.80;16.40;;;;;;;9.21;79.24;101915.38;5043360;28;20021;-66
2022/05/05 01:15:13;;;;;;;36.28;16.85;;;;;;;9.22;79.43;101913.50;5043721;28;20509;-66
2022/05/05 01:17:38;;;;;;;30.55;16.10;;;;;;;9.20;79.10;101904.63;5042305;28;20029;-66
2022/05/05 01:20:15;;;;;;;32.67;16.48;;;;;;;9.18;79.47;101909.47;5043591;28;20472;-66
2022/05/05 01:22:40;;;;;;;32.03;16.75;;;;;;;9.15;79.47;101905.22;5042533;28;20518;-66
2022/05/05 01:30:34;;;;;;;33.40;17.27;;;;;;;9.07;80.38;101902.59;5040955;28;20045;-66
2022/05/05 01:32:59;;;;;;;33.78;16.05;;;;;;;9.02;80.48;101905.06;5040736;28;20036;-66
2022/05/05 01:35:24;;;;;;;35.13;16.75;;;;;;;8.97;80.75;101908.41;5042576;28;20078;-66
2022/05/05 01:37:50;;;;;;;34.28;16.77;;;;;;;8.92;80.51;101901.78;5042381;28;20130;-65
2022/05/05 01:40:16;;;;;;;33.45;16.27;;;;;;;8.84;81.00;101909.09;5042834;28;20045;-66
2022/05/05 01:42:41;;;;;;;31.63;16.10;;;;;;;8.78;81.11;101900.81;5041999;28;20040;-66
2022/05/05 01:45:07;;;;;;;34.42;17.13;;;;;;;8.74;81.83;101910.44;5041737;28;20441;-65
2022/05/05 01:47:32;;;;;;;32.92;16.42;;;;;;;8.70;81.74;101906.41;5041589;28;20029;-66
2022/05/05 01:50:00;;;;;;;33.20;16.13;;;;;;;8.59;82.50;101902.25;5043064;28;20029;-65
2022/05/05 01:52:27;;;;;;;31.00;17.00;;;;;;;8.51;82.65;101910.56;5041777;28;20025;-66
2022/05/05 01:54:52;;;;;;;29.02;16.15;;;;;;;8.52;83.18;101913.16;5042293;28;20626;-66
2022/05/05 01:57:17;;;;;;;33.20;16.08;;;;;;;8.51;82.97;101913.31;5041400;28;20029;-65
2022/05/05 01:59:43;;;;;;;34.35;17.08;;;;;;;8.43;82.71;101913.44;5041548;28;20045;-66
2022/05/05 02:02:08;;;;;;;31.27;16.45;;;;;;;8.39;82.82;101912.13;5041604;28;20041;-65
2022/05/05 02:04:33;;;;;;;33.63;17.02;;;;;;;8.33;83.24;101914.53;5041967;28;20029;-65
2022/05/05 02:06:58;;;;;;;33.50;16.80;;;;;;;8.26;82.97;101910.00;5038500;28;20700;-65
2022/05/05 02:09:24;;;;;;;35.30;17.90;;;;;;;8.24;83.47;101907.47;5042501;28;20037;-65
2022/05/05 02:11:49;;;;;;;37.25;18.83;;;;;;;8.23;83.72;101908.50;5039337;28;20187;-65
2022/05/05 02:14:15;;;;;;;37.80;17.58;;;;;;;8.20;83.81;101914.34;5041429;28;20025;-65
2022/05/05 02:16:40;;;;;;;33.72;17.90;;;;;;;8.21;83.51;101916.06;5042591;28;20639;-66
2022/05/05 02:19:05;;;;;;;35.33;17.80;;;;;;;8.21;83.66;101917.94;5043037;28;20037;-65
2022/05/05 02:21:30;;;;;;;36.60;17.75;;;;;;;8.23;83.75;101919.44;5041276;28;20487;-65
2022/05/05 02:23:55;;;;;;;33.35;16.85;;;;;;;8.23;83.86;101908.50;5042141;28;20060;-65
2022/05/05 02:26:21;;;;;;;34.40;18.08;;;;;;;8.23;84.06;101915.88;5041110;28;20029;-66
2022/05/05 02:28:49;;;;;;;31.42;15.75;;;;;;;8.24;83.98;101920.28;5042618;28;20064;-66
2022/05/05 02:31:14;;;;;;;;;;;;;;;8.38;81.62;101911.28;5042349;28;20075;-65
2022/05/05 02:33:39;;;;;;;35.20;17.17;;;;;;;8.23;83.53;101922.19;5041694;28;19920;-66
2022/05/05 02:38:49;;;;;;;33.78;16.10;;;;;;;8.19;84.04;101926.34;5040838;28;20115;-66
2022/05/05 02:41:14;;;;;;;34.33;16.38;;;;;;;8.19;84.08;101923.59;5041383;28;20119;-66
2022/05/05 02:43:39;;;;;;;36.03;17.95;;;;;;;8.15;84.36;101925.00;5042397;28;20032;-65
2022/05/05 02:46:05;;;;;;;35.67;17.67;;;;;;;8.09;84.38;101920.28;5043073;28;20029;-66
2022/05/05 02:48:30;;;;;;;33.25;17.58;;;;;;;8.07;84.11;101925.13;5009560;28;20028;-65
2022/05/05 02:50:55;;;;;;;36.38;16.90;;;;;;;8.02;84.52;101924.81;5035547;28;20043;-65
2022/05/05 02:56:05;;;;;;;37.78;17.67;;;;;;;7.96;83.90;101929.16;5042760;28;20044;-65
2022/05/05 02:58:30;;;;;;;35.05;17.30;;;;;;;7.92;84.85;101922.38;5041664;28;20063;-65
2022/05/05 03:00:56;;;;;;;36.42;17.33;;;;;;;7.91;84.64;101925.28;5042302;28;20041;-65
2022/05/05 03:03:21;;;;;;;32.90;17.48;;;;;;;7.81;84.66;101931.03;5041213;28;20538;-65
2022/05/05 03:05:47;;;;;;;35.38;16.20;;;;;;;7.70;85.45;101929.56;5041648;28;20024;-66
2022/05/05 03:08:12;;;;;;;37.72;17.17;;;;;;;7.64;85.82;101930.31;5042942;28;20116;-66
2022/05/05 03:10:38;;;;;;;38.22;17.40;;;;;;;7.62;85.53;101920.63;5045663;28;20024;-65
2022/05/05 03:13:04;;;;;;;35.65;17.10;;;;;;;7.58;85.84;101930.22;5045613;28;20045;-65
2022/05/05 03:15:29;;;;;;;35.42;16.52;;;;;;;7.54;86.34;101929.72;5045633;28;20215;-65
2022/05/05 03:17:54;;;;;;;36.13;17.50;;;;;;;7.57;86.34;101931.25;5043908;28;20700;-65
2022/05/05 03:20:20;;;;;;;39.95;18.50;;;;;;;7.56;86.20;101930.41;5044724;28;20517;-65
2022/05/05 03:22:45;;;;;;;42.15;19.05;;;;;;;7.56;86.69;101930.41;5034676;28;20084;-65
2022/05/05 03:25:10;;;;;;;37.55;18.33;;;;;;;7.52;86.23;101934.53;5045195;28;20079;-65
2022/05/05 03:27:36;;;;;;;40.22;19.42;;;;;;;7.49;86.32;101933.00;5046443;28;20031;-65
2022/05/05 03:30:03;;;;;;;43.55;19.05;;;;;;;7.46;86.77;101933.41;5045421;28;20029;-65
2022/05/05 03:32:28;;;;;;;40.05;18.73;;;;;;;7.45;86.46;101930.81;5041334;28;20029;-66
2022/05/05 03:34:54;;;;;;;37.53;18.98;;;;;;;7.44;86.87;101934.59;5044648;28;20482;-65
2022/05/05 03:37:19;;;;;;;38.83;18.58;;;;;;;7.42;86.76;101942.13;5042912;28;20025;-65
2022/05/05 03:39:45;;;;;;;40.60;18.30;;;;;;;7.40;86.84;101936.00;5045554;28;20029;-66
2022/05/05 03:42:10;;;;;;;41.67;20.73;;;;;;;7.42;87.03;101937.53;5044354;28;20064;-66
2022/05/05 03:44:35;;;;;;;39.65;18.45;;;;;;;7.48;87.26;101931.31;5044599;28;20033;-65
2022/05/05 03:47:01;;;;;;;40.42;19.23;;;;;;;7.49;87.71;101933.00;5044881;28;20079;-65
2022/05/05 03:49:26;;;;;;;42.45;18.75;;;;;;;7.54;87.66;101935.19;5045147;28;20060;-65
2022/05/05 03:51:51;;;;;;;42.92;19.10;;;;;;;7.57;87.78;101934.84;5044544;28;20498;-65
2022/05/05 03:54:16;;;;;;;37.08;19.15;;;;;;;7.64;87.61;101941.25;5031571;28;20499;-65
2022/05/05 03:56:42;;;;;;;40.60;19.45;;;;;;;7.65;87.73;101940.22;5025601;28;20037;-65
2022/05/05 03:59:07;;;;;;;40.45;19.55;;;;;;;7.73;87.66;101940.16;5044012;28;20045;-65
2022/05/05 04:01:32;;;;;;;42.80;18.90;;;;;;;7.80;87.40;101946.56;5044080;28;20106;-65
2022/05/05 04:03:57;;;;;;;40.55;19.30;;;;;;;7.82;87.23;101945.56;5044943;28;20032;-65
2022/05/05 04:06:23;;;;;;;41.65;20.10;;;;;;;7.79;86.33;101952.22;5042428;28;20329;-65
2022/05/05 04:08:48;;;;;;;42.80;20.95;;;;;;;7.78;86.81;101950.53;5044984;28;20031;-65
2022/05/05 04:11:14;;;;;;;43.47;19.92;;;;;;;7.79;86.77;101963.16;5042644;28;20048;-66
2022/05/05 04:13:39;;;;;;;45.38;20.63;;;;;;;7.78;87.08;101967.78;5044820;28;20456;-64
2022/05/05 04:16:05;;;;;;;42.55;19.67;;;;;;;7.76;87.26;101961.66;5044456;28;20036;-65
2022/05/05 04:18:32;;;;;;;46.60;22.25;;;;;;;7.78;88.12;101964.22;5043956;28;20025;-65
2022/05/05 04:20:58;;;;;;;46.55;19.92;;;;;;;7.82;87.93;101967.44;5042711;28;20029;-65
2022/05/05 04:23:23;;;;;;;44.90;20.30;;;;;;;7.80;87.72;101965.72;5024428;28;20033;-66
2022/05/05 04:25:49;;;;;;;44.47;21.25;;;;;;;7.80;87.48;101967.59;5044566;28;20044;-65
2022/05/05 04:28:15;;;;;;;47.88;20.95;;;;;;;7.77;88.03;101966.09;5044284;28;20735;-65
2022/05/05 04:30:41;;;;;;;44.92;21.10;;;;;;;7.78;88.14;101977.88;5044019;28;20021;-66
2022/05/05 04:33:08;;;;;;;46.78;20.92;;;;;;;7.84;87.96;101971.66;5044772;28;20570;-65
2022/05/05 04:35:35;;;;;;;44.95;19.75;;;;;;;7.87;87.58;101974.03;5042866;28;20021;-65
2022/05/05 04:38:00;;;;;;;42.45;21.08;;;;;;;7.91;87.23;101980.00;5042230;28;20017;-65
2022/05/05 04:40:25;;;;;;;50.72;22.20;;;;;;;7.87;87.67;101984.13;5043536;28;20052;-65
2022/05/05 04:42:51;;;;;;;49.00;22.65;;;;;;;7.87;87.81;101982.25;5042583;28;20368;-65
2022/05/05 04:45:16;;;;;;;47.58;22.63;;;;;;;7.87;88.15;101978.66;5043662;28;20456;-65
2022/05/05 04:47:43;;;;;;;44.55;21.10;;;;;;;7.87;88.27;101982.25;5044362;28;20025;-65
2022/05/05 04:50:08;;;;;;;45.85;20.85;;;;;;;7.90;88.27;101983.75;5042982;28;20075;-65
2022/05/05 04:52:34;;;;;;;54.67;22.38;;;;;;;7.95;87.95;101986.78;5042479;28;20484;-65
2022/05/05 04:54:59;;;;;;;51.78;23.45;;;;;;;7.94;88.17;101991.41;5041981;28;20036;-65
2022/05/05 04:57:25;;;;;;;45.55;21.65;;;;;;;7.94;88.14;101987.81;5041245;28;20017;-65
2022/05/05 04:59:50;;;;;;;50.80;21.58;;;;;;;7.95;88.40;101984.03;5042976;28;20116;-65
2022/05/05 05:02:15;;;;;;;50.42;21.80;;;;;;;7.97;88.23;101984.72;5042301;28;20047;-66
2022/05/05 05:04:41;;;;;;;49.15;22.63;;;;;;;7.97;88.42;101979.25;5042023;28;20132;-65
2022/05/05 05:07:06;;;;;;;47.20;21.45;;;;;;;8.00;88.11;101998.84;5039592;28;20475;-65
2022/05/05 05:09:31;;;;;;;51.50;23.33;;;;;;;8.11;88.54;101988.50;5036410;28;20036;-64
2022/05/05 05:11:57;;;;;;;50.38;22.77;;;;;;;8.15;88.21;101998.88;5041642;28;20037;-65
2022/05/05 05:14:22;;;;;;;53.00;23.10;;;;;;;8.21;87.87;101997.28;5040830;28;20102;-64
2022/05/05 05:16:47;;;;;;;50.13;22.92;;;;;;;8.22;87.74;101997.13;5039259;28;20029;-65
2022/05/05 05:19:12;;;;;;;50.38;23.00;;;;;;;8.24;87.83;101997.78;5042635;28;20087;-65
2022/05/05 05:21:38;;;;;;;55.78;24.23;;;;;;;8.31;88.34;102003.34;5041646;28;20605;-65
2022/05/05 05:24:03;;;;;;;50.65;22.45;;;;;;;8.42;87.55;101993.88;5041330;28;20039;-65
2022/05/05 05:26:29;;;;;;;50.53;23.77;;;;;;;8.42;88.41;102010.28;5042805;28;20298;-65
2022/05/05 05:28:54;;;;;;;56.67;25.50;;;;;;;8.44;88.29;102008.22;5024852;28;20029;-65
2022/05/05 05:31:21;;;;;;;55.03;24.80;;;;;;;8.49;88.32;102019.44;5039549;28;20094;-64
2022/05/05 05:33:47;;;;;;;53.65;23.65;;;;;;;8.55;88.27;102021.44;5042299;28;20111;-64
2022/05/05 05:36:12;;;;;;;59.72;26.13;;;;;;;8.64;88.12;102013.97;5039411;28;20101;-65
2022/05/05 05:38:37;;;;;;;53.65;25.55;;;;;;;8.73;88.04;102015.56;5042518;28;20017;-65
2022/05/05 05:41:03;;;;;;;52.60;24.70;;;;;;;8.87;87.45;102016.59;5036185;28;20032;-65
2022/05/05 05:43:28;;;;;;;50.00;25.23;;;;;;;9.01;86.23;102015.72;5041858;28;20462;-65
2022/05/05 05:45:53;;;;;;;50.95;24.70;;;;;;;9.12;84.93;102017.94;5024282;28;20025;-65
2022/05/05 05:48:18;;;;;;;49.45;25.38;;;;;;;9.28;86.59;102016.91;5041548;28;20044;-65
2022/05/05 05:50:44;;;;;;;41.88;22.73;;;;;;;9.48;86.25;102017.09;5039590;28;20477;-65
2022/05/05 05:53:09;;;;;;;45.10;22.33;;;;;;;9.63;86.48;102023.41;5042295;28;20367;-63
2022/05/05 05:55:35;;;;;;;37.95;21.88;;;;;;;9.76;84.54;102017.19;5040910;28;20040;-65
2022/05/05 05:58:01;;;;;;;44.50;23.33;;;;;;;9.93;83.57;102015.84;5038902;28;20498;-65
2022/05/05 06:00:26;;;;;;;37.30;20.85;;;;;;;10.09;82.80;102020.22;5041612;28;20032;-65
2022/05/05 06:05:35;;;;;;;38.03;21.08;;;;;;;10.47;81.74;102020.72;5038106;28;20044;-65
2022/05/05 06:08:02;;;;;;;33.30;20.35;;;;;;;10.66;80.97;102016.41;5043007;28;20025;-65
2022/05/05 06:10:28;;;;;;;34.00;19.17;;;;;;;10.86;80.08;102022.00;5041300;28;20028;-65
2022/05/05 06:12:54;;;;;;;28.33;19.05;;;;;;;11.08;78.69;102022.75;5042550;28;20167;-65
2022/05/05 06:15:20;;;;;;;31.40;19.10;;;;;;;11.17;75.82;102024.25;5041680;28;20785;-66
2022/05/05 06:17:45;;;;;;;30.42;18.42;;;;;;;11.29;75.24;102021.75;5042692;28;20017;-66
2022/05/05 06:20:11;;;;;;;31.00;17.83;;;;;;;11.37;74.33;102022.44;5039697;28;20072;-65
2022/05/05 06:22:39;;;;;;;27.58;16.60;;;;;;;11.49;74.48;102024.56;5043122;28;20498;-66
2022/05/05 06:25:05;;;;;;;;;;;;;;;11.64;75.35;102022.47;5039589;28;20108;-66
2022/05/05 06:27:30;;;;;;;28.80;17.77;;;;;;;11.82;75.20;102021.91;5040625;28;20066;-66
2022/05/05 06:29:55;;;;;;;30.08;17.70;;;;;;;12.03;74.25;102023.63;5041912;28;20037;-66
2022/05/05 06:32:21;;;;;;;28.33;16.63;;;;;;;12.17;69.46;102022.56;5030344;28;20033;-66
2022/05/05 06:34:46;;;;;;;30.95;16.90;;;;;;;12.36;69.34;102024.41;5021915;28;20127;-65
2022/05/05 06:37:12;;;;;;;29.77;17.48;;;;;;;12.55;71.96;102028.22;5020148;28;20060;-66
2022/05/05 06:39:37;;;;;;;28.58;18.35;;;;;;;12.74;71.60;102034.75;5024957;28;20515;-66
2022/05/05 06:42:03;;;;;;;30.45;19.27;;;;;;;12.94;70.42;102032.78;5045221;28;20387;-66
2022/05/05 06:44:28;;;;;;;28.15;18.70;;;;;;;13.11;67.05;102032.28;5045143;28;20479;-66
2022/05/05 06:46:54;;;;;;;33.35;20.35;;;;;;;13.31;66.53;102033.06;5045672;28;20033;-65
2022/05/05 06:49:20;;;;;;;34.65;21.23;;;;;;;13.49;64.96;102026.84;5044833;28;20021;-65
2022/05/05 06:51:45;;;;;;;34.20;20.42;;;;;;;13.59;63.77;102029.13;5043519;28;20029;-66
2022/05/05 06:54:10;;;;;;;33.22;20.38;;;;;;;13.68;64.32;102025.84;5045511;28;20055;-65
2022/05/05 06:56:36;;;;;;;36.00;21.65;;;;;;;13.80;63.60;102026.00;5045261;28;20032;-65
2022/05/05 06:59:01;;;;;;;34.75;20.35;;;;;;;13.81;63.89;102033.19;5044947;28;20102;-65
2022/05/05 07:07:30;;;;;;;41.95;22.65;;;;;;;14.12;62.28;102048.06;4923156;29;20039;-66
2022/05/05 07:12:39;;;;;;;44.00;24.10;;;;;;;14.37;62.87;102059.09;5026012;28;20068;-65
2022/05/05 07:15:06;;;;;;;44.42;27.00;;;;;;;14.40;62.43;102053.13;5025327;28;20515;-66
2022/05/05 07:17:32;;;;;;;46.40;27.30;;;;;;;14.42;63.41;102059.28;5024991;28;20032;-67
2022/05/05 07:19:58;;;;;;;47.13;26.98;;;;;;;14.48;63.59;102064.75;5008319;28;20029;-66
2022/05/05 07:22:23;;;;;;;45.33;27.30;;;;;;;14.65;63.12;102064.19;5044105;28;20025;-66
2022/05/05 07:24:48;;;;;;;43.90;25.67;;;;;;;14.66;61.54;102074.19;5043527;28;20024;-66
2022/05/05 07:27:14;;;;;;;44.67;26.38;;;;;;;14.74;62.60;102073.88;5043682;28;20364;-66
2022/05/05 07:29:40;;;;;;;46.47;26.67;;;;;;;14.74;62.40;102082.16;5044937;28;20385;-67
2022/05/05 07:32:06;;;;;;;49.25;28.65;;;;;;;14.81;63.14;102082.97;5044243;28;20033;-67
2022/05/05 07:34:34;;;;;;;51.25;31.23;;;;;;;14.89;62.79;102082.66;5043572;28;20032;-66
2022/05/05 07:36:59;;;;;;;54.20;31.83;;;;;;;14.91;63.18;102082.44;5043140;28;20041;-67
2022/05/05 07:39:24;;;;;;;62.83;33.97;;;;;;;14.87;61.87;102086.72;5045627;28;20025;-66
2022/05/05 07:41:49;;;;;;;60.50;35.10;;;;;;;15.03;64.77;102086.13;5043091;28;20033;-66
2022/05/05 07:44:15;;;;;;;55.03;32.47;;;;;;;15.23;63.79;102078.44;5045677;28;20460;-65
2022/05/05 07:46:41;;;;;;;66.00;36.67;;;;;;;15.34;63.40;102090.63;5044260;28;20068;-69
2022/05/05 07:49:07;;;;;;;73.97;40.60;;;;;;;15.39;62.88;102079.72;5045627;28;20355;-63
2022/05/05 07:51:33;;;;;;;61.20;34.05;;;;;;;15.41;61.08;102082.25;5042820;28;20029;-69
2022/05/05 07:56:43;;;;;;;67.68;38.20;;;;;;;15.69;62.18;102087.22;5042941;28;20040;-65
2022/05/05 07:59:08;;;;;;;67.47;36.55;;;;;;;15.54;61.14;102088.47;5044921;28;20334;-67
2022/05/05 08:01:34;;;;;;;67.50;37.10;;;;;;;15.46;61.27;102087.91;5014076;28;20029;-64
2022/05/05 08:03:59;;;;;;;62.55;36.25;;;;;;;15.55;61.69;102095.69;5024919;28;20043;-64
2022/05/05 08:06:24;;;;;;;64.40;36.58;;;;;;;15.65;62.21;102097.09;5031377;28;20502;-65
2022/05/05 08:08:50;;;;;;;66.80;37.17;;;;;;;15.71;61.83;102098.91;5039724;28;20024;-65
2022/05/05 08:11:15;;;;;;;64.55;35.10;;;;;;;15.77;62.84;102098.00;5044161;28;20550;-67
2022/05/05 08:13:40;;;;;;;63.80;37.20;;;;;;;15.88;62.32;102099.97;5037922;28;20032;-64
2022/05/05 08:16:06;;;;;;;64.30;37.92;;;;;;;15.87;61.41;102101.03;5040853;28;20044;-63
2022/05/05 08:18:31;;;;;;;67.97;38.55;;;;;;;15.82;61.14;102098.13;5043924;28;20040;-64
2022/05/05 08:20:57;;;;;;;65.68;38.58;;;;;;;15.81;61.53;102104.72;5041137;28;20344;-64
2022/05/05 08:23:22;;;;;;;62.10;36.63;;;;;;;15.91;61.48;102109.72;5042853;28;20086;-65
2022/05/05 08:28:36;;;;;;;63.00;38.50;;;;;;;16.13;61.06;102112.81;5024283;28;20063;-66
2022/05/05 08:31:01;;;;;;;67.13;40.13;;;;;;;16.17;60.04;102112.09;5034152;28;20021;-66
2022/05/05 08:33:27;;;;;;;68.05;38.63;;;;;;;16.34;61.41;102115.03;5026265;28;20413;-65
2022/05/05 08:35:58;;;;;;;64.30;38.95;;;;;;;16.55;61.09;102121.94;5031575;28;20116;-66
2022/05/05 08:38:23;;;;;;;71.68;39.15;;;;;;;16.63;60.19;102117.97;5031512;28;20028;-66
2022/05/05 08:40:49;;;;;;;67.80;39.90;;;;;;;16.78;60.13;102121.13;5027798;28;20496;-66
2022/05/05 08:43:15;;;;;;;68.85;39.45;;;;;;;16.70;59.04;102119.53;5017506;28;20149;-65
2022/05/05 08:45:40;;;;;;;75.55;40.00;;;;;;;16.70;60.03;102129.78;5037995;28;20120;-65
2022/05/05 08:48:07;;;;;;;68.57;38.88;;;;;;;16.55;59.21;102128.31;5037560;28;20094;-65
2022/05/05 08:50:35;;;;;;;75.95;41.75;;;;;;;16.42;58.67;102124.91;5037799;28;20511;-66
2022/05/05 08:53:02;;;;;;;71.70;41.08;;;;;;;16.46;60.71;102134.44;5011615;28;20030;-65
2022/05/05 08:55:28;;;;;;;74.57;42.17;;;;;;;16.57;60.81;102130.84;5033535;28;20075;-65
2022/05/05 08:57:54;;;;;;;76.50;41.78;;;;;;;16.64;60.11;102127.97;5042372;28;20017;-65
2022/05/05 09:00:20;;;;;;;74.15;40.80;;;;;;;16.71;61.11;102137.88;5041519;28;20033;-65
2022/05/05 09:02:45;;;;;;;75.25;41.13;;;;;;;16.71;59.97;102135.09;5041696;28;20017;-65
2022/05/05 09:05:11;;;;;;;70.50;41.08;;;;;;;16.87;60.21;102128.00;5040406;28;20036;-65
2022/05/05 09:07:49;;;;;;;69.78;40.40;;;;;;;17.09;60.40;102137.41;5040785;28;20060;-66
2022/05/05 09:10:17;;;;;;;71.25;40.53;;;;;;;17.21;59.09;102139.31;5042420;28;20341;-66
2022/05/05 09:12:42;;;;;;;73.07;41.07;;;;;;;17.31;58.43;102137.59;5042560;28;20031;-65
2022/05/05 09:15:09;;;;;;;65.75;39.63;;;;;;;17.33;57.10;102134.56;5043315;28;20338;-66
2022/05/05 09:17:35;;;;;;;75.53;40.17;;;;;;;17.62;56.44;102147.44;5042844;28;20025;-65
2022/05/05 09:20:03;;;;;;;72.60;39.90;;;;;;;17.91;54.63;102138.31;5040298;28;20765;-65
2022/05/05 09:22:29;;;;;;;64.95;37.60;;;;;;;18.52;53.31;102131.91;5041512;28;20661;-66
2022/05/05 09:24:57;;;;;;;69.38;38.70;;;;;;;18.93;53.98;102127.88;5042397;28;20013;-65
2022/05/05 09:27:31;;;;;;;63.75;36.92;;;;;;;19.14;53.62;102130.94;5041823;28;20023;-65
2022/05/05 09:30:02;;;;;;;66.60;36.45;;;;;;;19.12;50.57;102134.00;5042244;28;20039;-65
2022/05/05 09:32:30;;;;;;;55.97;32.97;;;;;;;19.14;51.46;102128.16;5041903;28;20399;-66
2022/05/05 09:34:57;;;;;;;52.93;30.23;;;;;;;18.99;50.63;102137.13;5027757;28;20078;-65
2022/05/05 09:37:22;;;;;;;52.13;31.50;;;;;;;19.00;50.77;102143.53;5041372;28;20017;-65
2022/05/05 09:39:53;;;;;;;68.03;40.37;;;;;;;18.91;53.04;102146.78;5040274;28;20035;-66
2022/05/05 09:42:44;;;;;;;63.33;38.28;;;;;;;18.89;52.61;102148.13;5041879;28;20259;-65
2022/05/05 09:45:49;;;;;;;80.53;39.47;;;;;;;18.80;53.69;102144.91;5040951;28;20052;-65
2022/05/05 09:48:16;;;;;;;75.75;40.03;;;;;;;18.55;52.56;102153.69;5020318;28;20033;-65
2022/05/05 09:51:03;;;;;;;66.10;39.60;;;;;;;18.49;53.67;102153.81;5037811;28;20033;-65
2022/05/05 09:59:26;;;;;;;66.18;38.80;;;;;;;18.41;52.92;102160.66;5041211;28;20589;-66
2022/05/05 10:01:54;;;;;;;64.38;37.83;;;;;;;18.50;53.25;102170.28;5035027;28;20056;-65
2022/05/05 10:04:23;;;;;;;69.38;41.03;;;;;;;18.40;52.26;102158.97;5041396;28;20060;-66
2022/05/05 10:06:49;;;;;;;71.75;42.70;;;;;;;18.34;51.81;102162.75;5036013;28;20124;-65
2022/05/05 10:09:16;;;;;;;76.35;42.30;;;;;;;18.37;52.74;102163.09;5042465;28;20025;-65
2022/05/05 10:11:42;;;;;;;74.60;42.38;;;;;;;18.46;51.94;102159.91;5042909;28;20083;-65
2022/05/05 10:14:12;;;;;;;72.43;43.33;;;;;;;18.50;51.69;102167.50;5043130;28;20032;-65
2022/05/05 10:16:39;;;;;;;73.07;42.92;;;;;;;18.66;51.11;102149.97;5040839;28;20114;-65
2022/05/05 10:19:06;;;;;;;73.25;44.10;;;;;;;18.91;50.63;102157.06;5042343;28;20029;-66
2022/05/05 10:21:34;;;;;;;69.00;44.63;;;;;;;19.09;49.45;102150.38;5041268;28;20036;-65
2022/05/05 10:24:15;;;;;;;71.05;45.03;;;;;;;19.25;50.68;102152.25;5036937;28;20326;-66
2022/05/05 10:26:41;;;;;;;69.00;45.03;;;;;;;19.34;50.85;102149.88;5033159;28;20028;-66
2022/05/05 10:29:32;;;;;;;75.28;46.15;;;;;;;19.39;49.79;102148.00;5041068;28;20101;-66
2022/05/05 10:32:12;;;;;;;71.18;43.72;;;;;;;19.32;49.97;102147.38;5041894;28;20543;-66
2022/05/05 10:34:45;;;;;;;75.03;45.55;;;;;;;19.58;49.78;102153.28;5032097;28;20060;-66
2022/05/05 10:37:12;;;;;;;69.90;44.10;;;;;;;19.91;50.92;102144.75;5039617;28;20029;-65
2022/05/05 10:39:48;;;;;;;69.40;44.88;;;;;;;20.15;49.12;102152.84;5038116;28;20037;-66
2022/05/05 10:42:22;;;;;;;74.45;46.88;;;;;;;20.30;46.66;102153.00;5040852;28;20162;-65
2022/05/05 10:45:26;;;;;;;70.53;46.28;;;;;;;20.66;48.82;102154.19;5020303;28;20082;-66
2022/05/05 10:48:06;;;;;;;71.55;49.22;;;;;;;20.54;44.77;102153.53;4904355;29;20111;-66
2022/05/05 10:50:56;;;;;;;68.25;48.35;;;;;;;20.71;44.86;102151.44;5009999;28;20660;-66
2022/05/05 10:53:33;;;;;;;69.65;49.47;;;;;;;20.78;47.97;102148.41;5022221;28;20144;-66
2022/05/05 10:56:01;;;;;;;68.03;48.33;;;;;;;21.22;45.46;102153.72;5021448;28;20045;-66
2022/05/05 10:58:45;;;;;;;;;;;;;;;21.70;45.40;102158.19;5021451;28;20049;-65
2022/05/05 11:01:11;;;;;;;67.55;47.35;;;;;;;21.18;43.59;102153.41;5030807;28;19916;-65
2022/05/05 11:03:36;;;;;;;67.27;45.27;;;;;;;21.05;43.51;102148.31;5023185;28;20547;-65
2022/05/05 11:06:17;;;;;;;60.57;42.27;;;;;;;21.07;45.31;102148.88;5039108;28;20279;-65
2022/05/05 11:08:53;;;;;;;66.10;43.17;;;;;;;21.10;45.72;102150.31;5038936;28;20689;-65
2022/05/05 11:21:31;;;;;;;60.83;38.83;;;;;;;21.07;44.02;102148.88;5039378;28;20047;-65
2022/05/05 11:22:28;;;;;;;55.83;35.03;;;;;;;21.70;43.84;102161.00;5021580;28;20091;-67
2022/05/05 11:24:53;;;;;;;59.05;41.03;;;;;;;21.61;42.02;102151.44;5024933;28;20136;-67
2022/05/05 11:27:23;;;;;;;46.95;31.63;;;;;;;21.89;42.61;102157.69;5043632;28;20435;-67
2022/05/05 11:29:56;;;;;;;40.90;26.27;;;;;;;21.79;42.31;102150.09;5043941;28;20558;-67
2022/05/05 11:32:32;;;;;;;27.33;17.98;;;;;;;21.94;40.24;102155.75;5041822;28;20107;-68
2022/05/05 11:34:58;;;;;;;28.23;17.63;;;;;;;22.10;39.15;102148.25;5044376;28;20025;-67
2022/05/05 11:37:26;;;;;;;35.80;20.45;;;;;;;22.22;41.10;102151.66;5043077;28;20108;-68
2022/05/05 11:39:51;;;;;;;33.28;20.23;;;;;;;22.22;40.32;102146.06;5025106;28;20037;-67
2022/05/05 11:42:18;;;;;;;30.55;19.95;;;;;;;22.12;40.78;102145.19;5042928;28;20028;-67
2022/05/05 11:44:45;;;;;;;26.73;17.10;;;;;;;22.31;40.11;102151.13;5041852;28;20070;-67
2022/05/05 11:47:21;;;;;;;35.47;21.63;;;;;;;22.44;40.94;102150.56;5042679;28;20029;-68
2022/05/05 11:49:48;;;;;;;30.45;20.05;;;;;;;22.40;40.14;102155.03;5043068;28;20028;-67
2022/05/05 11:52:22;;;;;;;23.50;15.73;;;;;;;22.28;40.37;102149.69;5040608;28;20491;-67
2022/05/05 11:54:50;;;;;;;39.75;22.80;;;;;;;22.21;40.15;102151.94;5022911;28;20112;-67
2022/05/05 11:57:30;;;;;;;38.50;25.75;;;;;;;22.36;43.10;102148.31;5043599;28;20025;-67
2022/05/05 12:02:40;;;;;;;43.42;26.85;;;;;;;22.47;41.11;102145.25;5044426;28;20094;-67